Airfield :
LOGIN :

Register | Disclaimer

   EN    FR    IT 

 










Legend :    VFR   Marginal VFR   IFR   Intensive IFR   Very Intensive IFR
Visi :
Ceiling :
>= 8 km
>= 3000ft
5 to 8 km
1000 to 3000 ft
1500m to 5 km
500 to 1000 ft
800 to 1500m
200 to 500 ft
< 800m
< 200 ft
Symbols :   Thunderstorms  Fog  Heavy snow  Heavy precipitations  Wind > 20 kt
SIGMETs :     Misc.  Thunderstorms  Icing  Turbulence  Mountain Waves  Volcanic Ashes







- Airport Elevation : 204 ft
- IATA code : AGF
- Download approach charts


LFBA - Agen

CURRENT METAR :
  • 221400Z AUTO 12009KT CAVOK 19/08 Q1000 TEMPO 11015G27KT

EXPIRED METARs :
  • 221330Z AUTO 13009KT 090V160 CAVOK 19/07 Q1001 TEMPO 11015G27KT
  • 221300Z AUTO 12013KT CAVOK 19/07 Q1001 TEMPO 11015G27KT
  • 221230Z AUTO 13016KT 100V170 CAVOK 19/07 Q1001 TEMPO 11015G27KT
  • 221200Z AUTO 13019KT 090V170 CAVOK 20/07 Q1002 TEMPO 11015G27KT
  • 221130Z AUTO 12013KT CAVOK 20/08 Q1002 TEMPO 11015G27KT

TAF TAF LFBA
Valid from the 22 at 15:00 until the 23 at 00:00 UTC


221400Z 2215/2224 11012KT CAVOK
TEMPO 2215/2224 11015G27KT
No reported NOTAMs for that airfield.



MET'MAP, your aeronautical weather chart ! - Copyright ORBIFLY December 2007 - Disclaimer

ORBIFLY MET'MAP TEAM :

Programming & Development : Alexandra Zaïnal
Concept & Development : Baudouin d'Aumeries
Co-Development & Prog : Marc-Olivier Méhu
Technical & hardware support : Manuel Goepfert

Contact : metmap@orbifly.com




SOURCES & CREDITS :

   NOAA